Time;durP1;ratioP1;P1;durP2;ratioP2;P2;SDS_P1;SDS_P2;PMS_P1;PMS_P2;Temp;Humidity;BMP_temperature;BMP_pressure;BME280_temperature;BME280_humidity;BME280_pressure;Samples;Min_cycle;Max_cycle;Signal;HPM_P1;HPM_P2
2023/10/02 00:01:17;;;;;;;12.47;6.30;;;16.40;99.90;;;;;;5074194;28;20412;-76
2023/10/02 00:03:43;;;;;;;12.53;6.80;;;16.30;99.90;;;;;;5074207;28;20409;-76
2023/10/02 00:06:09;;;;;;;7.47;4.87;;;16.30;99.90;;;;;;5073971;28;20424;-76
2023/10/02 00:08:42;;;;;;;10.20;5.90;;;16.20;99.90;;;;;;5073956;28;20412;-76
2023/10/02 00:16:58;;;;;;;10.80;6.37;;;16.10;99.90;;;;;;5073558;28;20509;-76
2023/10/02 00:19:44;;;;;;;12.13;6.77;;;16.00;99.90;;;;;;5055969;28;20925;-76
2023/10/02 00:22:37;;;;;;;13.63;5.13;;;16.00;99.90;;;;;;5073119;28;20503;-76
2023/10/02 00:25:07;;;;;;;8.27;4.87;;;16.00;99.90;;;;;;5055827;28;20433;-76
2023/10/02 00:27:34;;;;;;;9.03;6.67;;;15.90;99.90;;;;;;5073489;28;20455;-76
2023/10/02 00:30:00;;;;;;;8.90;5.20;;;15.90;99.90;;;;;;5073601;28;20408;-76
2023/10/02 00:32:26;;;;;;;10.70;5.40;;;15.90;99.90;;;;;;5073540;28;20891;-77
2023/10/02 00:34:53;;;;;;;8.73;5.33;;;15.80;99.90;;;;;;5073457;28;20459;-76
2023/10/02 00:37:19;;;;;;;8.67;4.87;;;15.80;99.90;;;;;;5055254;28;20452;-76
2023/10/02 00:39:48;;;;;;;10.07;5.10;;;15.80;99.90;;;;;;5055312;28;20464;-76
2023/10/02 00:42:16;;;;;;;8.63;5.13;;;15.80;99.90;;;;;;5073203;28;20431;-76
2023/10/02 00:44:56;;;;;;;9.10;5.67;;;15.80;99.90;;;;;;5073338;28;20432;-76
2023/10/02 00:47:45;;;;;;;10.03;5.70;;;15.70;99.90;;;;;;5073151;28;20462;-76
2023/10/02 00:50:19;;;;;;;10.53;5.43;;;15.70;99.90;;;;;;5073357;28;20415;-76
2023/10/02 00:52:58;;;;;;;15.37;7.33;;;15.70;99.90;;;;;;5055138;28;20550;-76
2023/10/02 00:55:34;;;;;;;12.90;6.90;;;15.60;99.90;;;;;;5055150;28;20447;-76
2023/10/02 00:58:05;;;;;;;14.07;5.93;;;15.60;99.90;;;;;;5072950;28;20456;-76
2023/10/02 01:00:36;;;;;;;7.87;5.23;;;15.60;99.90;;;;;;5055138;28;20462;-76
2023/10/02 01:03:08;;;;;;;10.17;5.80;;;15.50;99.90;;;;;;5073091;28;20408;-76
2023/10/02 01:05:41;;;;;;;11.03;6.03;;;15.50;99.90;;;;;;5072777;28;20845;-77
2023/10/02 01:11:02;;;;;;;12.03;5.30;;;15.50;99.90;;;;;;5072934;28;20396;-76
2023/10/02 01:13:35;;;;;;;10.03;5.63;;;15.40;99.90;;;;;;5072761;28;20408;-76
2023/10/02 01:16:04;;;;;;;8.57;5.70;;;15.40;99.90;;;;;;5072692;28;20459;-76
2023/10/02 01:18:31;;;;;;;9.63;6.80;;;15.40;99.90;;;;;;5072524;28;20417;-76
2023/10/02 01:21:01;;;;;;;12.00;6.17;;;15.40;99.90;;;;;;5072647;28;20409;-76
2023/10/02 01:23:29;;;;;;;10.53;6.20;;;15.40;99.90;;;;;;5072639;28;20404;-76
2023/10/02 01:26:00;;;;;;;10.30;6.37;;;15.40;99.90;;;;;;5072392;28;20788;-76
2023/10/02 01:28:51;;;;;;;16.60;7.97;;;15.40;99.90;;;;;;5054555;28;20417;-76
2023/10/02 01:31:41;;;;;;;14.20;6.90;;;15.30;99.90;;;;;;5072592;28;20431;-76
2023/10/02 01:34:07;;;;;;;12.10;6.20;;;15.30;99.90;;;;;;5072530;28;20748;-76
2023/10/02 01:36:33;;;;;;;11.20;7.27;;;15.30;99.90;;;;;;5072150;28;20458;-76
2023/10/02 01:39:13;;;;;;;10.63;7.13;;;15.30;99.90;;;;;;5072188;28;20174;-76
2023/10/02 01:41:41;;;;;;;14.07;7.87;;;15.30;99.90;;;;;;5072289;28;20775;-76
2023/10/02 01:44:11;;;;;;;16.13;7.73;;;15.20;99.90;;;;;;5072223;28;20411;-76
2023/10/02 01:46:49;;;;;;;16.80;7.43;;;15.20;99.90;;;;;;5054015;28;20982;-76
2023/10/02 01:49:25;;;;;;;20.67;9.43;;;15.30;99.90;;;;;;5072140;28;20451;-76
2023/10/02 01:52:01;;;;;;;17.03;9.90;;;15.20;99.90;;;;;;5072099;28;20412;-77
2023/10/02 01:54:27;;;;;;;19.13;10.63;;;15.20;99.90;;;;;;5053953;28;20447;-77
2023/10/02 01:56:55;;;;;;;17.03;8.67;;;15.20;99.90;;;;;;5071840;28;20444;-76
2023/10/02 01:59:21;;;;;;;13.20;7.47;;;15.20;99.90;;;;;;5054251;28;20271;-76
2023/10/02 02:01:57;;;;;;;13.23;7.93;;;15.10;99.90;;;;;;5071956;28;20492;-76
2023/10/02 02:04:27;;;;;;;10.93;7.30;;;15.10;99.90;;;;;;5072047;28;20192;-76
2023/10/02 02:06:54;;;;;;;15.53;7.60;;;15.10;99.90;;;;;;5053793;28;20415;-76
2023/10/02 02:09:25;;;;;;;11.30;7.20;;;15.10;99.90;;;;;;5071880;28;20494;-76
2023/10/02 02:12:05;;;;;;;11.40;7.23;;;15.10;99.90;;;;;;5071899;28;20411;-76
2023/10/02 02:14:51;;;;;;;12.07;6.80;;;15.10;99.90;;;;;;5053786;28;20515;-76
2023/10/02 02:17:27;;;;;;;13.10;6.97;;;15.00;99.90;;;;;;5053692;28;20460;-76
2023/10/02 02:19:56;;;;;;;16.20;9.07;;;15.00;99.90;;;;;;5071312;28;20432;-76
2023/10/02 02:22:26;;;;;;;14.70;8.03;;;15.00;99.90;;;;;;5071522;28;20487;-76
2023/10/02 02:24:55;;;;;;;10.73;7.07;;;15.00;99.90;;;;;;5071572;28;20448;-76
2023/10/02 02:27:20;;;;;;;19.73;9.07;;;15.00;99.90;;;;;;5071544;28;20494;-77
2023/10/02 02:29:48;;;;;;;12.77;8.00;;;15.00;99.90;;;;;;5053701;28;20417;-76
2023/10/02 02:32:16;;;;;;;19.77;8.83;;;15.00;99.90;;;;;;5071657;28;20177;-76
2023/10/02 02:34:41;;;;;;;19.10;10.13;;;15.00;99.90;;;;;;5071508;28;20419;-76
2023/10/02 02:37:08;;;;;;;11.90;9.13;;;14.90;99.90;;;;;;5071262;28;20618;-76
2023/10/02 02:39:37;;;;;;;18.03;8.20;;;14.90;99.90;;;;;;5071641;28;20166;-76
2023/10/02 02:44:43;;;;;;;14.33;8.53;;;15.00;99.90;;;;;;5071671;28;20408;-76
2023/10/02 02:47:14;;;;;;;13.87;8.57;;;15.00;99.90;;;;;;5053445;28;20439;-76
2023/10/02 02:49:51;;;;;;;12.87;7.17;;;15.00;99.90;;;;;;5053809;28;20416;-76
2023/10/02 02:52:26;;;;;;;14.30;8.33;;;15.00;99.90;;;;;;5071534;28;20431;-76
2023/10/02 02:55:03;;;;;;;13.47;8.40;;;14.90;99.90;;;;;;5071284;28;20443;-76
2023/10/02 02:57:34;;;;;;;15.77;9.37;;;14.90;99.90;;;;;;5071279;28;20547;-76
2023/10/02 03:02:52;;;;;;;21.63;10.10;;;14.90;99.90;;;;;;5071709;28;20447;-76
2023/10/02 03:05:22;;;;;;;21.23;9.20;;;14.90;99.90;;;;;;5071249;28;20416;-76
2023/10/02 03:07:54;;;;;;;16.23;10.30;;;14.90;99.90;;;;;;5053163;28;20427;-76
2023/10/02 03:10:20;;;;;;;15.17;8.77;;;14.80;99.90;;;;;;5071434;28;20416;-76
2023/10/02 03:12:48;;;;;;;13.63;8.70;;;14.80;99.90;;;;;;5071137;28;20458;-76
2023/10/02 03:15:13;;;;;;;12.37;9.90;;;14.80;99.90;;;;;;5053463;28;20935;-76
2023/10/02 03:17:41;;;;;;;19.27;10.53;;;14.80;99.90;;;;;;5053037;28;20459;-77
2023/10/02 03:20:29;;;;;;;15.90;9.50;;;14.70;99.90;;;;;;5071312;28;20277;-77
2023/10/02 03:22:55;;;;;;;18.27;10.53;;;14.70;99.90;;;;;;5070497;28;20514;-76
2023/10/02 03:28:27;;;;;;;16.53;10.27;;;14.70;99.90;;;;;;5070975;28;20470;-76
2023/10/02 03:30:54;;;;;;;20.27;10.20;;;14.70;99.90;;;;;;5071220;28;20447;-77
2023/10/02 03:33:22;;;;;;;17.83;10.10;;;14.60;99.90;;;;;;5074488;28;20436;-76
2023/10/02 03:36:08;;;;;;;13.57;8.03;;;14.50;99.90;;;;;;5074803;28;20436;-76
2023/10/02 03:38:41;;;;;;;20.60;9.90;;;14.50;99.90;;;;;;5074671;28;20451;-76
2023/10/02 03:41:07;;;;;;;18.53;9.83;;;14.50;99.90;;;;;;5056723;28;20436;-76
2023/10/02 03:43:35;;;;;;;17.67;9.73;;;14.50;99.90;;;;;;5074737;28;20404;-76
2023/10/02 03:46:04;;;;;;;20.07;9.67;;;14.50;99.90;;;;;;5074328;28;20185;-76
2023/10/02 03:48:33;;;;;;;14.87;10.30;;;14.50;99.90;;;;;;5056472;28;20428;-76
2023/10/02 03:51:03;;;;;;;19.90;11.67;;;14.60;99.90;;;;;;5074423;28;20787;-76
2023/10/02 03:53:28;;;;;;;18.03;10.00;;;14.50;99.90;;;;;;5074270;28;20432;-76
2023/10/02 03:58:56;;;;;;;23.43;14.80;;;14.50;99.90;;;;;;5074442;28;20181;-76
2023/10/02 04:01:31;;;;;;;20.77;11.63;;;14.50;99.90;;;;;;5074408;28;20768;-76
2023/10/02 04:06:42;;;;;;;15.03;9.90;;;14.50;99.90;;;;;;5073974;28;20420;-76
2023/10/02 04:09:12;;;;;;;17.43;9.90;;;14.50;99.90;;;;;;5074100;28;20401;-76
2023/10/02 04:11:38;;;;;;;17.93;9.43;;;14.50;99.90;;;;;;5074138;28;20389;-76
2023/10/02 04:14:16;;;;;;;16.47;9.97;;;14.40;99.90;;;;;;5073922;28;20400;-75
2023/10/02 04:16:46;;;;;;;13.83;8.47;;;14.40;99.90;;;;;;5055581;28;20970;-76
2023/10/02 04:19:15;;;;;;;17.90;10.00;;;14.40;99.90;;;;;;5073850;28;20909;-76
2023/10/02 04:21:42;;;;;;;12.53;8.10;;;14.40;99.90;;;;;;5073961;28;20436;-76
2023/10/02 04:24:09;;;;;;;15.33;9.97;;;14.40;99.90;;;;;;5073541;28;20393;-76
2023/10/02 04:26:36;;;;;;;20.27;10.90;;;14.40;99.90;;;;;;5073589;28;20511;-75
2023/10/02 04:32:04;;;;;;;28.17;14.77;;;14.40;99.90;;;;;;5074125;28;20432;-76
2023/10/02 04:34:31;;;;;;;15.67;12.97;;;14.30;99.90;;;;;;5073667;28;20400;-75
2023/10/02 04:36:57;;;;;;;14.00;9.70;;;14.40;99.90;;;;;;5073265;28;20451;-76
2023/10/02 04:44:45;;;;;;;16.80;10.37;;;14.40;99.90;;;;;;5072955;28;20474;-76
2023/10/02 04:47:20;;;;;;;19.00;11.47;;;14.30;99.90;;;;;;5073251;28;20458;-76
2023/10/02 04:50:34;;;;;;;16.50;11.20;;;14.30;99.90;;;;;;5073410;28;20412;-76
2023/10/02 04:52:55;;;;;;;18.60;11.30;;;14.30;99.90;;;;;;5072839;28;20435;-76
2023/10/02 04:55:24;;;;;;;20.30;12.60;;;14.30;99.90;;;;;;5073124;28;20459;-76
2023/10/02 04:58:03;;;;;;;22.90;11.63;;;14.30;99.90;;;;;;5072908;28;20462;-76
2023/10/02 05:00:34;;;;;;;17.83;12.80;;;14.30;99.90;;;;;;5073181;28;20405;-76
2023/10/02 05:05:49;;;;;;;22.17;12.47;;;14.30;99.90;;;;;;5073129;28;20482;-75
2023/10/02 05:08:29;;;;;;;19.33;11.50;;;14.40;99.90;;;;;;5072779;28;20412;-75
2023/10/02 05:11:05;;;;;;;16.37;11.03;;;14.40;99.90;;;;;;5072999;28;20204;-76
2023/10/02 05:13:59;;;;;;;20.30;11.80;;;14.40;99.90;;;;;;5072763;28;20938;-77
2023/10/02 05:16:38;;;;;;;17.23;11.33;;;14.40;99.90;;;;;;5072516;28;20948;-76
2023/10/02 05:19:06;;;;;;;17.07;10.60;;;14.40;99.90;;;;;;5055002;28;20408;-76
2023/10/02 05:21:36;;;;;;;17.93;11.60;;;14.40;99.90;;;;;;5054829;28;20409;-76
2023/10/02 05:24:15;;;;;;;18.87;11.53;;;14.40;99.90;;;;;;5072598;28;20408;-76
2023/10/02 05:26:44;;;;;;;18.03;10.70;;;14.40;99.90;;;;;;5072390;28;20447;-76
2023/10/02 05:29:17;;;;;;;18.37;11.10;;;14.50;99.90;;;;;;5072604;28;20491;-77
2023/10/02 05:31:43;;;;;;;21.00;11.50;;;14.50;99.90;;;;;;5072604;28;20405;-77
2023/10/02 05:34:25;;;;;;;15.97;9.30;;;14.50;99.90;;;;;;5072436;28;20404;-76
2023/10/02 05:37:30;;;;;;;14.00;9.90;;;14.50;99.90;;;;;;5072046;28;20448;-76
2023/10/02 05:39:43;;;;;;;16.17;10.10;;;14.50;99.90;;;;;;5069997;28;20763;-76
2023/10/02 05:42:13;;;;;;;18.67;11.40;;;14.50;99.90;;;;;;5072333;28;20393;-76
2023/10/02 05:44:39;;;;;;;19.50;9.90;;;14.50;99.90;;;;;;5072191;28;20162;-76
2023/10/02 05:47:05;;;;;;;16.17;10.03;;;14.60;99.90;;;;;;5054159;28;20780;-75
2023/10/02 05:49:36;;;;;;;16.70;10.07;;;14.60;99.90;;;;;;5072172;28;20401;-75
2023/10/02 05:52:07;;;;;;;18.97;9.40;;;14.60;99.90;;;;;;5072214;28;20173;-75
2023/10/02 05:54:36;;;;;;;15.07;10.00;;;14.60;99.90;;;;;;5071972;28;20431;-76
2023/10/02 05:57:09;;;;;;;14.67;10.10;;;14.70;99.90;;;;;;5071899;28;20444;-75
2023/10/02 05:59:54;;;;;;;24.27;10.40;;;14.70;99.90;;;;;;5072135;28;20401;-76
2023/10/02 06:02:22;;;;;;;15.53;10.27;;;14.80;99.90;;;;;;5072119;28;20392;-75
2023/10/02 06:04:52;;;;;;;15.37;10.07;;;14.80;99.90;;;;;;5071932;28;20416;-76
2023/10/02 06:10:24;;;;;;;19.10;10.53;;;15.00;99.90;;;;;;5071824;28;20877;-75
2023/10/02 06:12:51;;;;;;;16.40;9.70;;;15.00;99.90;;;;;;5071802;28;20783;-75
2023/10/02 06:18:01;;;;;;;13.73;9.10;;;15.20;99.90;;;;;;5071596;28;20845;-76
2023/10/02 06:20:27;;;;;;;15.23;9.40;;;15.30;99.90;;;;;;5071872;28;20488;-76
2023/10/02 06:23:05;;;;;;;21.23;9.20;;;15.30;99.90;;;;;;5053865;28;20487;-76
2023/10/02 06:25:31;;;;;;;17.03;9.93;;;15.40;99.90;;;;;;5071725;28;20178;-76
2023/10/02 06:28:19;;;;;;;16.73;9.07;;;15.40;99.90;;;;;;5071896;28;20428;-76
2023/10/02 06:30:43;;;;;;;20.43;9.80;;;15.50;99.90;;;;;;5071606;28;20696;-76
2023/10/02 06:33:10;;;;;;;15.87;9.03;;;15.60;99.90;;;;;;5071733;28;20440;-76
2023/10/02 06:35:44;;;;;;;13.03;7.60;;;15.80;99.90;;;;;;5071526;28;20456;-76
2023/10/02 06:38:15;;;;;;;16.13;8.97;;;15.90;99.90;;;;;;5053213;28;20826;-76
2023/10/02 06:40:55;;;;;;;12.73;9.00;;;16.10;99.90;;;;;;5071812;28;20900;-76
2023/10/02 06:43:28;;;;;;;13.93;7.97;;;16.20;99.90;;;;;;5071571;28;20393;-76
2023/10/02 06:46:06;;;;;;;18.03;8.30;;;16.30;99.90;;;;;;5071556;28;20417;-76
2023/10/02 06:48:34;;;;;;;16.43;9.43;;;16.50;99.90;;;;;;5071430;28;20487;-76
2023/10/02 06:51:01;;;;;;;12.97;8.63;;;16.60;99.90;;;;;;5053492;28;20475;-76
2023/10/02 06:53:26;;;;;;;15.90;9.60;;;16.70;99.90;;;;;;5071240;28;20806;-76
2023/10/02 06:55:58;;;;;;;13.83;7.80;;;16.80;99.90;;;;;;5053107;28;20482;-73
2023/10/02 06:58:25;;;;;;;16.07;9.47;;;16.90;99.90;;;;;;5071286;28;20194;-73
2023/10/02 07:01:01;;;;;;;17.67;9.13;;;16.90;99.90;;;;;;5071589;28;20412;-74
2023/10/02 07:03:27;;;;;;;17.90;10.23;;;16.90;99.90;;;;;;5071434;28;20467;-74
2023/10/02 07:05:53;;;;;;;13.90;8.70;;;16.90;99.90;;;;;;5071514;28;20420;-75
2023/10/02 07:08:21;;;;;;;15.40;7.47;;;17.00;99.90;;;;;;5075496;28;20170;-75
2023/10/02 07:10:48;;;;;;;19.80;9.30;;;17.10;99.90;;;;;;5075297;28;20214;-76
2023/10/02 07:13:23;;;;;;;14.17;9.80;;;17.10;99.90;;;;;;5075182;28;20404;-76
2023/10/02 07:15:59;;;;;;;19.00;9.53;;;17.10;99.90;;;;;;5057228;28;20431;-76
2023/10/02 07:18:45;;;;;;;15.23;8.83;;;17.20;99.90;;;;;;5074979;28;20855;-76
2023/10/02 07:21:11;;;;;;;11.40;7.33;;;17.50;99.90;;;;;;5056859;28;20404;-76
2023/10/02 07:23:39;;;;;;;16.03;9.43;;;17.60;99.90;;;;;;5057005;28;20404;-77
2023/10/02 07:26:05;;;;;;;15.57;8.80;;;17.80;99.90;;;;;;5074868;28;20273;-76
2023/10/02 07:28:31;;;;;;;14.40;7.23;;;17.90;99.90;;;;;;5074712;28;20427;-77
2023/10/02 07:30:57;;;;;;;11.67;7.73;;;17.90;99.90;;;;;;5074906;28;20400;-75
2023/10/02 07:33:23;;;;;;;13.57;8.27;;;18.00;99.90;;;;;;5056857;28;20216;-76
2023/10/02 07:35:54;;;;;;;14.77;9.10;;;18.20;99.90;;;;;;5056773;28;20428;-76
2023/10/02 07:38:21;;;;;;;15.07;9.10;;;18.30;99.90;;;;;;5074505;28;20197;-76
2023/10/02 07:40:51;;;;;;;15.80;8.63;;;18.40;99.90;;;;;;5074674;28;20507;-76
2023/10/02 07:43:18;;;;;;;10.97;7.80;;;18.50;99.90;;;;;;5074668;28;20403;-76
2023/10/02 07:45:44;;;;;;;15.27;8.37;;;18.80;99.90;;;;;;5056491;28;20436;-76
2023/10/02 07:48:16;;;;;;;18.60;9.10;;;19.00;99.90;;;;;;5056506;28;20487;-76
2023/10/02 07:50:44;;;;;;;14.27;10.23;;;19.30;99.90;;;;;;5056648;28;20500;-76
2023/10/02 07:53:10;;;;;;;15.63;8.50;;;19.50;99.90;;;;;;5074377;28;20482;-76
2023/10/02 07:55:46;;;;;;;16.90;8.00;;;19.70;99.90;;;;;;5074280;28;20469;-75
2023/10/02 07:58:13;;;;;;;20.23;10.87;;;19.80;99.90;;;;;;5074141;28;20483;-76
2023/10/02 08:00:42;;;;;;;17.23;8.73;;;19.80;99.90;;;;;;5074366;28;20400;-76
2023/10/02 08:05:56;;;;;;;14.53;8.23;;;20.10;99.90;;;;;;5074485;28;20427;-76
2023/10/02 08:08:25;;;;;;;18.70;9.40;;;20.50;99.90;;;;;;5073998;28;20405;-76
2023/10/02 08:10:52;;;;;;;15.13;8.70;;;20.80;99.90;;;;;;5074221;28;20401;-76
2023/10/02 08:13:32;;;;;;;16.20;9.80;;;21.10;99.90;;;;;;5074214;28;20439;-76
2023/10/02 08:16:06;;;;;;;14.27;8.60;;;21.30;99.90;;;;;;5074024;28;20424;-76
2023/10/02 08:18:31;;;;;;;13.30;7.80;;;21.80;99.90;;;;;;5054594;28;20456;-75
2023/10/02 08:20:58;;;;;;;15.10;8.87;;;22.80;99.90;;;;;;5073995;28;20423;-75
2023/10/02 08:23:24;;;;;;;15.13;7.77;;;24.10;99.90;;;;;;5073864;28;20171;-73
2023/10/02 08:26:02;;;;;;;14.13;7.27;;;25.50;99.90;;;;;;5055821;28;20439;-74
2023/10/02 08:28:34;;;;;;;15.53;8.60;;;26.80;99.90;;;;;;5073671;28;20162;-75
2023/10/02 08:31:03;;;;;;;12.30;7.73;;;28.00;99.90;;;;;;5073737;28;20401;-74
2023/10/02 08:33:33;;;;;;;15.83;8.40;;;29.40;99.90;;;;;;5055714;28;20443;-73
2023/10/02 08:36:01;;;;;;;15.73;9.10;;;30.00;87.70;;;;;;5055636;28;20432;-74
2023/10/02 08:38:27;;;;;;;16.50;8.27;;;31.00;83.20;;;;;;5054893;28;20547;-73
2023/10/02 08:40:58;;;;;;;12.57;8.43;;;32.10;73.10;;;;;;5073354;28;20990;-74
2023/10/02 08:43:28;;;;;;;18.07;7.90;;;32.60;61.30;;;;;;5073560;28;20911;-75
2023/10/02 08:45:55;;;;;;;15.43;8.77;;;33.20;58.10;;;;;;5073247;28;20429;-75
2023/10/02 08:48:22;;;;;;;12.80;9.50;;;33.70;55.90;;;;;;5073282;28;20918;-74
2023/10/02 08:50:48;;;;;;;15.80;9.10;;;34.00;51.90;;;;;;5073294;28;20396;-74
2023/10/02 08:53:20;;;;;;;13.93;9.23;;;34.20;51.30;;;;;;5055191;28;20515;-75
2023/10/02 08:58:15;;;;;;;10.77;6.57;;;35.90;49.10;;;;;;5072966;28;20498;-75
2023/10/02 09:04:03;;;;;;;13.70;9.90;;;37.40;44.00;;;;;;5063970;28;20415;-75
2023/10/02 09:06:36;;;;;;;13.80;10.47;;;37.70;42.90;;;;;;5054877;28;20440;-76
2023/10/02 09:09:22;;;;;;;13.60;8.40;;;38.00;41.80;;;;;;5054976;28;20401;-76
2023/10/02 09:11:58;;;;;;;14.93;9.60;;;38.60;40.80;;;;;;5072885;28;20541;-76
2023/10/02 09:20:03;;;;;;;13.13;8.93;;;42.20;36.30;;;;;;5072777;28;20412;-76
2023/10/02 09:22:37;;;;;;;18.23;9.43;;;42.80;35.10;;;;;;5054658;28;20420;-76
2023/10/02 09:25:18;;;;;;;13.67;10.77;;;43.50;33.30;;;;;;5072484;28;20428;-76
2023/10/02 09:27:57;;;;;;;12.33;9.23;;;44.30;31.80;;;;;;5071121;28;20419;-76
2023/10/02 09:33:22;;;;;;;13.70;9.47;;;45.10;31.00;;;;;;5072656;28;20400;-77
2023/10/02 09:35:51;;;;;;;12.67;9.73;;;45.80;29.90;;;;;;5072412;28;20394;-69
2023/10/02 09:38:17;;;;;;;11.60;9.33;;;46.50;29.50;;;;;;5054066;28;20456;-70
2023/10/02 09:40:59;;;;;;;15.20;10.83;;;46.90;28.50;;;;;;5072390;28;20375;-70
2023/10/02 09:43:27;;;;;;;14.20;9.70;;;46.60;27.80;;;;;;5054310;28;20411;-70
2023/10/02 09:45:55;;;;;;;9.83;8.37;;;46.00;28.40;;;;;;5072126;28;20422;-70
2023/10/02 09:51:25;;;;;;;13.80;10.57;;;46.90;28.40;;;;;;5072341;28;20927;-69
2023/10/02 09:54:17;;;;;;;11.43;10.20;;;47.40;27.40;;;;;;5072135;28;20399;-69
2023/10/02 09:57:05;;;;;;;15.47;9.23;;;47.00;27.00;;;;;;5071848;28;20438;-69
2023/10/02 09:59:37;;;;;;;15.40;9.87;;;47.00;27.10;;;;;;5072111;28;20368;-69
2023/10/02 10:02:15;;;;;;;14.10;10.40;;;46.80;27.10;;;;;;5072250;28;20801;-70
2023/10/02 10:05:00;;;;;;;12.50;9.00;;;46.40;27.30;;;;;;5071900;28;20375;-69
2023/10/02 10:07:46;;;;;;;10.90;9.27;;;46.60;27.10;;;;;;5071889;28;20386;-69
2023/10/02 10:13:32;;;;;;;13.00;9.83;;;47.30;26.70;;;;;;5072119;28;20371;-70
2023/10/02 10:16:18;;;;;;;12.60;8.63;;;47.60;26.70;;;;;;5071853;28;20452;-70
2023/10/02 10:22:03;;;;;;;12.47;9.57;;;47.60;26.10;;;;;;5071941;28;20375;-69
2023/10/02 10:24:56;;;;;;;14.43;10.07;;;47.90;26.40;;;;;;5071780;28;20359;-69
2023/10/02 10:27:40;;;;;;;15.33;11.10;;;48.00;26.10;;;;;;5062108;28;20424;-71
2023/10/02 10:30:39;;;;;;;15.63;11.23;;;48.40;26.30;;;;;;5051762;28;20459;-70
2023/10/02 10:35:48;;;;;;;8.97;8.03;;;49.20;25.70;;;;;;5051944;28;20396;-71
2023/10/02 10:38:26;;;;;;;15.07;10.50;;;49.40;25.50;;;;;;5033555;28;20427;-70
2023/10/02 10:41:00;;;;;;;11.77;10.63;;;49.50;25.50;;;;;;5051656;28;20737;-71
2023/10/02 10:43:26;;;;;;;13.83;10.23;;;49.40;25.40;;;;;;5055513;28;20399;-70
2023/10/02 10:45:55;;;;;;;13.50;11.40;;;49.50;25.30;;;;;;5055478;28;20431;-70
2023/10/02 10:48:23;;;;;;;11.30;9.70;;;50.00;25.20;;;;;;5070760;28;20519;-70
2023/10/02 10:50:59;;;;;;;11.47;9.00;;;50.20;24.50;;;;;;5055600;28;20724;-70
2023/10/02 10:53:29;;;;;;;10.03;9.03;;;50.10;24.50;;;;;;5055510;28;20915;-70
2023/10/02 10:56:17;;;;;;;11.57;10.00;;;50.50;25.20;;;;;;5055930;28;20395;-71
2023/10/02 10:58:44;;;;;;;13.60;10.50;;;50.50;24.00;;;;;;5055822;28;21064;-70
2023/10/02 11:01:16;;;;;;;13.90;10.33;;;50.80;24.40;;;;;;5071120;28;20388;-70
2023/10/02 11:03:43;;;;;;;11.03;9.73;;;51.20;23.80;;;;;;5055794;28;20939;-70
2023/10/02 11:06:10;;;;;;;15.20;10.63;;;51.30;23.80;;;;;;5055468;28;20786;-71
2023/10/02 11:08:40;;;;;;;11.60;9.73;;;52.20;24.60;;;;;;5055308;28;20393;-71
2023/10/02 11:11:18;;;;;;;13.83;10.67;;;52.80;23.20;;;;;;5055365;28;20376;-71
2023/10/02 11:13:51;;;;;;;13.87;10.10;;;53.00;22.40;;;;;;5055342;28;20400;-70
2023/10/02 11:16:38;;;;;;;11.43;10.17;;;53.30;23.00;;;;;;5070520;28;20438;-71
2023/10/02 11:19:21;;;;;;;10.03;8.90;;;53.50;23.10;;;;;;5055181;28;20765;-70
2023/10/02 11:22:02;;;;;;;9.77;8.80;;;53.40;22.30;;;;;;5055097;28;20404;-70
2023/10/02 11:24:28;;;;;;;13.10;10.50;;;54.30;23.10;;;;;;5055022;28;20427;-71
2023/10/02 11:27:07;;;;;;;14.30;10.50;;;54.90;22.70;;;;;;5054757;28;20429;-71
2023/10/02 11:29:40;;;;;;;11.63;9.80;;;55.40;22.00;;;;;;5054972;28;20413;-71
2023/10/02 11:32:22;;;;;;;12.33;10.50;;;55.80;22.10;;;;;;5054857;28;20396;-71
2023/10/02 11:35:03;;;;;;;13.10;10.73;;;55.90;21.00;;;;;;5054680;28;20810;-71
2023/10/02 11:37:28;;;;;;;12.03;10.87;;;56.40;21.80;;;;;;5054634;28;20447;-71
2023/10/02 11:39:55;;;;;;;11.00;10.00;;;56.50;21.20;;;;;;5054796;28;20416;-71
2023/10/02 11:42:22;;;;;;;11.33;10.27;;;56.50;20.80;;;;;;5054750;28;20250;-71
2023/10/02 11:44:48;;;;;;;14.07;10.50;;;55.60;20.10;;;;;;5054499;28;20916;-71
2023/10/02 11:47:14;;;;;;;12.47;10.70;;;55.00;20.30;;;;;;5054418;28;20410;-70
2023/10/02 11:49:40;;;;;;;11.73;9.40;;;55.20;21.00;;;;;;5054519;28;20232;-71
2023/10/02 11:52:06;;;;;;;10.70;9.60;;;55.50;21.10;;;;;;5036491;28;20483;-70
2023/10/02 11:54:39;;;;;;;10.90;9.80;;;55.80;21.60;;;;;;5054235;28;20515;-71
2023/10/02 11:57:10;;;;;;;12.20;10.90;;;56.10;20.80;;;;;;5054179;28;20269;-71
2023/10/02 11:59:37;;;;;;;13.97;10.60;;;55.60;19.90;;;;;;5053971;28;20789;-71
2023/10/02 12:02:04;;;;;;;14.03;9.67;;;55.00;20.30;;;;;;5054341;28;20397;-71
2023/10/02 12:04:30;;;;;;;11.40;9.07;;;54.40;20.20;;;;;;5054167;28;20417;-71
2023/10/02 12:06:56;;;;;;;13.07;11.70;;;53.90;20.60;;;;;;5036271;28;20424;-70
2023/10/02 12:09:23;;;;;;;13.57;10.53;;;53.50;20.80;;;;;;5054113;28;20406;-71
2023/10/02 12:11:48;;;;;;;10.53;9.13;;;52.90;20.20;;;;;;5054081;28;20403;-71
2023/10/02 12:14:14;;;;;;;11.13;9.50;;;52.90;20.90;;;;;;5036041;28;20828;-71
2023/10/02 12:16:39;;;;;;;11.73;9.17;;;53.00;21.20;;;;;;5053780;28;20260;-71
2023/10/02 12:19:08;;;;;;;9.87;8.80;;;53.10;21.60;;;;;;5054067;28;20689;-70
2023/10/02 12:21:34;;;;;;;12.47;9.77;;;52.80;21.50;;;;;;5036248;28;20603;-70
2023/10/02 12:24:00;;;;;;;11.50;9.80;;;52.40;20.70;;;;;;5053992;28;20484;-70
2023/10/02 12:26:28;;;;;;;14.07;9.50;;;52.00;21.50;;;;;;5053665;28;20213;-70
2023/10/02 12:28:54;;;;;;;12.10;10.20;;;51.70;21.50;;;;;;5069294;28;20388;-71
2023/10/02 12:31:19;;;;;;;11.23;10.00;;;50.80;21.30;;;;;;5053799;28;20900;-71
2023/10/02 12:33:47;;;;;;;12.77;9.27;;;49.70;21.40;;;;;;5053719;28;20194;-71
2023/10/02 12:36:17;;;;;;;13.10;10.10;;;48.60;22.50;;;;;;5035793;28;20277;-71
2023/10/02 12:38:44;;;;;;;13.00;8.80;;;48.30;23.30;;;;;;5068734;28;20491;-71
2023/10/02 12:41:20;;;;;;;12.30;10.00;;;48.40;23.00;;;;;;5053514;28;20368;-71
2023/10/02 12:43:46;;;;;;;12.83;9.40;;;48.20;22.80;;;;;;5053648;28;20401;-70
2023/10/02 12:46:15;;;;;;;11.90;8.73;;;47.40;22.80;;;;;;5053334;28;20789;-70
2023/10/02 12:48:48;;;;;;;11.23;9.73;;;47.30;24.00;;;;;;5053343;28;20405;-70
2023/10/02 12:51:17;;;;;;;16.37;9.77;;;47.50;24.60;;;;;;5053429;28;20518;-70
2023/10/02 12:53:43;;;;;;;13.23;9.60;;;47.20;24.60;;;;;;5053153;28;20396;-71
2023/10/02 12:56:15;;;;;;;16.07;9.37;;;46.10;24.30;;;;;;5053094;28;20534;-70
2023/10/02 12:58:41;;;;;;;12.47;9.23;;;44.80;24.40;;;;;;5052732;28;20428;-69
2023/10/02 13:01:12;;;;;;;12.60;9.37;;;43.60;25.20;;;;;;5053208;28;20523;-70
2023/10/02 13:03:38;;;;;;;12.27;8.97;;;42.70;26.10;;;;;;5053047;28;20397;-69
2023/10/02 13:06:04;;;;;;;10.07;7.97;;;41.50;27.10;;;;;;5066117;28;20449;-69
2023/10/02 13:08:29;;;;;;;12.77;10.20;;;40.40;27.80;;;;;;5072762;28;20166;-69
2023/10/02 13:10:56;;;;;;;14.73;10.23;;;39.70;29.00;;;;;;5055054;28;20175;-69
2023/10/02 13:13:21;;;;;;;12.97;9.77;;;38.80;29.40;;;;;;5055070;28;20170;-69
2023/10/02 13:15:51;;;;;;;13.03;9.00;;;38.00;30.00;;;;;;5072735;28;20447;-69
2023/10/02 13:18:17;;;;;;;16.00;10.50;;;37.40;31.20;;;;;;5072670;28;20228;-69
2023/10/02 13:20:43;;;;;;;13.67;9.50;;;36.90;32.30;;;;;;5072819;28;20396;-69
2023/10/02 13:23:12;;;;;;;14.33;10.37;;;36.30;32.70;;;;;;5072098;28;20400;-69
2023/10/02 13:25:39;;;;;;;11.73;8.80;;;35.90;33.40;;;;;;5072345;28;20503;-69
2023/10/02 13:28:05;;;;;;;15.53;10.60;;;35.70;34.30;;;;;;5072274;28;20408;-69
2023/10/02 13:30:30;;;;;;;14.30;10.17;;;35.70;35.20;;;;;;5072608;28;20410;-70
2023/10/02 13:32:57;;;;;;;14.17;8.97;;;35.70;35.40;;;;;;5072816;28;20404;-74
2023/10/02 13:35:23;;;;;;;15.27;9.10;;;35.50;35.70;;;;;;5072618;28;20182;-74
2023/10/02 13:37:50;;;;;;;12.97;8.87;;;35.40;35.10;;;;;;5072159;28;20483;-72
2023/10/02 13:40:26;;;;;;;13.00;9.00;;;35.40;36.00;;;;;;5072686;28;20415;-74
2023/10/02 13:42:52;;;;;;;13.33;10.33;;;35.50;36.40;;;;;;5074205;28;20487;-74
2023/10/02 13:45:19;;;;;;;15.47;9.80;;;35.40;35.40;;;;;;5072794;28;20512;-74
2023/10/02 13:47:46;;;;;;;11.23;7.50;;;35.80;36.50;;;;;;5072531;28;20401;-73
2023/10/02 13:50:11;;;;;;;13.60;8.40;;;36.30;36.70;;;;;;5073454;28;20891;-73
2023/10/02 13:52:38;;;;;;;16.00;9.30;;;37.00;36.70;;;;;;5073638;28;20450;-73
2023/10/02 13:55:19;;;;;;;15.30;8.50;;;38.10;36.00;;;;;;5073700;28;20267;-74
2023/10/02 13:57:46;;;;;;;15.30;8.83;;;39.50;34.60;;;;;;5073886;28;20455;-74
2023/10/02 14:00:17;;;;;;;11.97;8.80;;;40.60;31.30;;;;;;5073012;28;20399;-74
2023/10/02 14:02:52;;;;;;;15.20;10.67;;;41.60;31.00;;;;;;5054964;28;20791;-75